createdAt,value
2023-04-30T00:02:03.475Z,4.50
2023-04-30T00:04:30.257Z,4.95
2023-04-30T00:06:57.132Z,4.55
2023-04-30T00:09:23.940Z,4.03
2023-04-30T00:11:50.753Z,4.57
2023-04-30T00:14:17.608Z,5.10
2023-04-30T00:16:44.465Z,4.82
2023-04-30T00:19:11.326Z,4.82
2023-04-30T00:21:38.234Z,4.10
2023-04-30T00:24:05.390Z,4.47
2023-04-30T00:26:32.144Z,4.82
2023-04-30T00:28:58.952Z,4.75
2023-04-30T00:31:26.141Z,4.25
2023-04-30T00:33:52.944Z,4.05
2023-04-30T00:36:19.949Z,3.90
2023-04-30T00:38:46.712Z,4.25
2023-04-30T00:41:13.774Z,3.85
2023-04-30T00:43:40.729Z,3.88
2023-04-30T00:46:07.490Z,4.13
2023-04-30T00:48:34.490Z,3.28
2023-04-30T00:51:04.036Z,3.80
2023-04-30T00:53:31.634Z,4.38
2023-04-30T00:55:58.951Z,4.15
2023-04-30T00:58:26.226Z,4.00
2023-04-30T01:00:53.339Z,3.97
2023-04-30T01:03:20.605Z,3.95
2023-04-30T01:05:47.407Z,4.10
2023-04-30T01:08:14.632Z,3.85
2023-04-30T01:11:07.117Z,4.30
2023-04-30T01:13:40.783Z,4.20
2023-04-30T01:16:22.240Z,3.90
2023-04-30T01:18:55.050Z,4.28
2023-04-30T01:21:22.795Z,4.40
2023-04-30T01:23:52.670Z,4.20
2023-04-30T01:26:37.992Z,3.90
2023-04-30T01:29:05.689Z,3.65
2023-04-30T01:31:32.606Z,4.63
2023-04-30T01:33:59.445Z,4.20
2023-04-30T01:36:43.289Z,3.90
2023-04-30T01:39:37.482Z,3.72
2023-04-30T01:42:19.855Z,4.18
2023-04-30T01:45:09.871Z,3.83
2023-04-30T01:47:41.427Z,4.05
2023-04-30T01:50:33.250Z,3.80
2023-04-30T01:53:02.745Z,3.90
2023-04-30T01:55:37.775Z,3.50
2023-04-30T01:58:09.587Z,4.38
2023-04-30T02:03:03.471Z,4.03
2023-04-30T02:05:30.747Z,4.20
2023-04-30T02:07:57.725Z,3.92
2023-04-30T02:10:26.560Z,4.05
2023-04-30T02:12:54.151Z,4.68
2023-04-30T02:15:20.968Z,3.85
2023-04-30T02:17:47.984Z,4.20
2023-04-30T02:20:14.903Z,4.07
2023-04-30T02:22:41.744Z,4.35
2023-04-30T02:25:09.196Z,4.20
2023-04-30T02:27:36.083Z,4.35
2023-04-30T02:30:03.210Z,4.30
2023-04-30T02:32:30.431Z,4.68
2023-04-30T02:34:57.217Z,4.28
2023-04-30T02:37:24.274Z,4.20
2023-04-30T02:39:52.005Z,3.65
2023-04-30T02:42:18.891Z,3.63
2023-04-30T02:44:45.810Z,4.07
2023-04-30T02:47:12.648Z,3.67
2023-04-30T02:49:40.084Z,3.60
2023-04-30T02:52:09.594Z,3.30
2023-04-30T02:54:36.641Z,3.28
2023-04-30T02:57:03.749Z,3.72
2023-04-30T02:59:30.773Z,3.65
2023-04-30T03:01:57.561Z,3.70
2023-04-30T03:04:24.387Z,4.07
2023-04-30T03:06:51.303Z,3.42
2023-04-30T03:09:18.226Z,3.55
2023-04-30T03:11:45.055Z,4.15
2023-04-30T03:14:11.838Z,4.30
2023-04-30T03:16:38.745Z,3.70
2023-04-30T03:19:05.896Z,4.10
2023-04-30T03:21:32.795Z,3.85
2023-04-30T03:23:59.665Z,3.55
2023-04-30T03:26:26.457Z,3.65
2023-04-30T03:28:55.177Z,3.30
2023-04-30T03:31:22.122Z,3.45
2023-04-30T03:33:48.967Z,3.90
2023-04-30T03:36:15.978Z,3.15
2023-04-30T03:38:42.993Z,3.13
2023-04-30T03:41:09.908Z,3.60
2023-04-30T03:43:38.106Z,3.00
2023-04-30T03:46:05.000Z,3.45
2023-04-30T03:48:31.968Z,3.38
2023-04-30T03:50:58.791Z,3.40
2023-04-30T03:53:26.795Z,3.63
2023-04-30T03:55:54.844Z,3.55
2023-04-30T03:58:22.254Z,3.85
2023-04-30T04:00:49.350Z,3.72
2023-04-30T04:03:16.930Z,4.20
2023-04-30T04:05:44.031Z,11.02
2023-04-30T04:08:10.895Z,4.68
2023-04-30T04:10:38.582Z,10.00
2023-04-30T04:13:05.381Z,4.93
2023-04-30T04:15:32.704Z,5.05
2023-04-30T04:17:59.519Z,5.45
2023-04-30T04:20:27.376Z,4.88
2023-04-30T04:22:54.193Z,5.18
2023-04-30T04:25:23.522Z,5.18
2023-04-30T04:27:50.497Z,5.28
2023-04-30T04:30:17.255Z,5.32
2023-04-30T04:32:49.441Z,5.07
2023-04-30T04:35:17.069Z,5.10
2023-04-30T04:37:43.916Z,5.50
2023-04-30T04:40:12.577Z,5.93
2023-04-30T04:42:39.529Z,5.50
2023-04-30T04:45:08.055Z,5.55
2023-04-30T04:47:35.075Z,4.93
2023-04-30T04:50:02.270Z,5.03
2023-04-30T04:52:29.083Z,4.90
2023-04-30T04:54:56.029Z,4.47
2023-04-30T04:57:22.881Z,5.03
2023-04-30T04:59:49.691Z,4.57
2023-04-30T05:02:16.489Z,4.75
2023-04-30T05:04:43.381Z,4.85
2023-04-30T05:07:10.168Z,4.82
2023-04-30T05:09:36.944Z,4.55
2023-04-30T05:12:04.217Z,4.40
2023-04-30T05:14:31.086Z,4.10
2023-04-30T05:16:57.898Z,4.53
2023-04-30T05:19:24.865Z,5.13
2023-04-30T05:21:51.700Z,4.82
2023-04-30T05:24:18.437Z,6.60
2023-04-30T05:26:45.198Z,6.70
2023-04-30T05:29:12.653Z,5.25
2023-04-30T05:31:39.450Z,5.40
2023-04-30T05:34:06.451Z,6.70
2023-04-30T05:36:33.278Z,7.18
2023-04-30T05:39:00.040Z,6.72
2023-04-30T05:41:26.826Z,7.13
2023-04-30T05:43:53.586Z,6.57
2023-04-30T05:46:20.712Z,7.18
2023-04-30T05:48:48.270Z,7.30
2023-04-30T05:51:15.072Z,7.30
2023-04-30T05:53:41.927Z,7.93
2023-04-30T05:56:08.998Z,7.40
2023-04-30T05:58:35.805Z,7.22
2023-04-30T06:01:02.768Z,7.60
2023-04-30T06:03:29.626Z,7.55
2023-04-30T06:05:56.477Z,7.55
2023-04-30T06:08:23.456Z,8.73
2023-04-30T06:10:51.159Z,8.15
2023-04-30T06:13:18.304Z,8.13
2023-04-30T06:15:46.106Z,8.63
2023-04-30T06:18:14.231Z,7.32
2023-04-30T06:20:41.242Z,6.68
2023-04-30T06:23:08.894Z,6.13
2023-04-30T06:25:36.134Z,5.63
2023-04-30T06:28:02.917Z,6.20
2023-04-30T06:30:32.256Z,6.22
2023-04-30T06:32:59.082Z,5.80
2023-04-30T06:35:26.119Z,5.95
2023-04-30T06:37:52.933Z,5.32
2023-04-30T06:40:20.673Z,5.03
2023-04-30T06:42:47.809Z,5.88
2023-04-30T06:45:15.441Z,5.25
2023-04-30T06:47:43.028Z,4.50
2023-04-30T06:50:10.271Z,4.82
2023-04-30T06:52:37.086Z,4.38
2023-04-30T06:55:04.016Z,4.22
2023-04-30T06:57:31.348Z,3.67
2023-04-30T06:59:58.403Z,3.88
2023-04-30T07:02:25.372Z,3.58
2023-04-30T07:05:06.886Z,3.78
2023-04-30T07:07:33.884Z,4.25
2023-04-30T07:10:26.875Z,3.80
2023-04-30T07:12:53.916Z,4.05
2023-04-30T07:15:20.710Z,4.90
2023-04-30T07:17:47.546Z,5.32
2023-04-30T07:20:14.868Z,5.45
2023-04-30T07:22:44.612Z,6.03
2023-04-30T07:25:15.066Z,6.57
2023-04-30T07:27:42.168Z,6.38
2023-04-30T07:30:10.645Z,7.13
2023-04-30T07:32:38.477Z,6.63
2023-04-30T07:35:06.319Z,7.03
2023-04-30T07:37:35.437Z,6.50
2023-04-30T07:40:03.757Z,6.82
2023-04-30T07:42:30.934Z,6.03
2023-04-30T07:44:57.921Z,6.30
2023-04-30T07:47:25.891Z,7.85
2023-04-30T07:49:53.674Z,7.07
2023-04-30T07:52:20.680Z,6.75
2023-04-30T07:54:47.467Z,6.78
2023-04-30T07:57:14.234Z,6.03
2023-04-30T07:59:41.073Z,5.38
2023-04-30T08:02:08.996Z,5.55
2023-04-30T08:04:36.018Z,5.43
2023-04-30T08:07:04.434Z,4.95
2023-04-30T08:09:31.483Z,5.30
2023-04-30T08:11:58.404Z,4.38
2023-04-30T08:14:25.352Z,4.55
2023-04-30T08:16:52.265Z,4.28
2023-04-30T08:19:19.066Z,4.20
2023-04-30T08:21:45.935Z,4.20
2023-04-30T08:24:12.698Z,4.05
2023-04-30T08:26:39.492Z,4.90
2023-04-30T08:29:08.442Z,4.88
2023-04-30T08:31:35.798Z,4.45
2023-04-30T08:34:02.733Z,4.60
2023-04-30T08:36:29.695Z,4.90
2023-04-30T08:38:57.615Z,5.05
2023-04-30T08:41:31.012Z,4.82
2023-04-30T08:44:09.230Z,4.00
2023-04-30T08:46:39.380Z,4.97
2023-04-30T08:49:07.492Z,4.60
2023-04-30T08:51:35.412Z,4.68
2023-04-30T08:54:04.964Z,4.25
2023-04-30T08:56:33.675Z,4.70
2023-04-30T08:59:00.592Z,4.32
2023-04-30T09:01:29.827Z,4.43
2023-04-30T09:03:57.473Z,4.65
2023-04-30T09:06:24.566Z,4.53
2023-04-30T09:08:52.661Z,4.68
2023-04-30T09:11:31.558Z,4.68
2023-04-30T09:14:00.300Z,4.90
2023-04-30T09:16:33.226Z,5.15
2023-04-30T09:19:00.455Z,4.82
2023-04-30T09:21:35.679Z,5.03
2023-04-30T09:24:04.658Z,3.92
2023-04-30T09:26:37.152Z,4.00
2023-04-30T09:29:08.411Z,4.07
2023-04-30T09:31:40.005Z,3.58
2023-04-30T09:34:07.164Z,3.55
2023-04-30T09:36:34.625Z,4.20
2023-04-30T09:39:15.746Z,3.70
2023-04-30T09:41:43.819Z,3.67
2023-04-30T09:44:30.584Z,4.25
2023-04-30T09:46:58.805Z,3.50
2023-04-30T09:49:27.414Z,3.70
2023-04-30T09:51:58.948Z,4.45
2023-04-30T09:54:27.958Z,4.68
2023-04-30T09:56:58.350Z,4.30
2023-04-30T09:59:36.582Z,10.13
2023-04-30T10:02:05.001Z,5.15
2023-04-30T10:04:44.895Z,4.07
2023-04-30T10:07:22.217Z,5.03
2023-04-30T10:10:07.886Z,5.15
2023-04-30T10:12:48.817Z,7.47
2023-04-30T10:15:21.177Z,6.22
2023-04-30T10:17:53.650Z,5.05
2023-04-30T10:20:23.497Z,5.57
2023-04-30T10:22:51.961Z,5.13
2023-04-30T10:25:19.539Z,5.72
2023-04-30T10:27:46.791Z,5.10
2023-04-30T10:30:14.422Z,4.97
2023-04-30T10:32:57.638Z,5.22
2023-04-30T10:35:33.221Z,5.20
2023-04-30T10:38:07.536Z,5.22
2023-04-30T10:40:38.474Z,4.95
2023-04-30T10:43:05.297Z,5.07
2023-04-30T10:45:37.768Z,5.10
2023-04-30T10:48:06.485Z,5.10
2023-04-30T10:50:33.665Z,4.88
2023-04-30T10:53:05.358Z,4.78
2023-04-30T10:55:32.830Z,5.00
2023-04-30T10:57:59.772Z,5.10
2023-04-30T11:00:29.057Z,5.00
2023-04-30T11:03:03.895Z,4.40
2023-04-30T11:05:39.293Z,4.50
2023-04-30T11:08:11.315Z,4.28
2023-04-30T11:10:38.159Z,4.30
2023-04-30T11:13:06.884Z,4.22
2023-04-30T11:15:45.693Z,3.65
2023-04-30T11:18:13.886Z,3.55
2023-04-30T11:20:42.279Z,3.60
2023-04-30T11:23:39.269Z,3.65
2023-04-30T11:29:56.695Z,3.63
2023-04-30T11:32:26.273Z,3.63
2023-04-30T11:35:29.636Z,3.00
2023-04-30T11:42:10.178Z,3.72
2023-04-30T11:48:39.036Z,3.80
2023-04-30T11:54:47.399Z,3.67
2023-04-30T12:00:59.772Z,3.10
2023-04-30T12:03:27.281Z,3.25
2023-04-30T12:05:54.425Z,3.03
2023-04-30T12:08:21.375Z,3.15
2023-04-30T12:10:48.143Z,3.55
2023-04-30T12:13:16.920Z,3.63
2023-04-30T12:15:57.036Z,3.20
2023-04-30T12:18:23.836Z,3.38
2023-04-30T12:20:51.085Z,2.90
2023-04-30T12:23:18.162Z,3.00
2023-04-30T12:25:45.128Z,3.13
2023-04-30T12:28:12.370Z,2.38
2023-04-30T12:30:39.314Z,3.10
2023-04-30T12:33:06.271Z,3.35
2023-04-30T12:35:33.151Z,3.08
2023-04-30T12:38:08.311Z,2.88
2023-04-30T12:40:35.233Z,3.00
2023-04-30T12:43:07.450Z,3.25
2023-04-30T12:45:53.381Z,2.95
2023-04-30T12:48:22.630Z,3.00
2023-04-30T12:50:54.574Z,3.47
2023-04-30T12:53:22.159Z,3.05
2023-04-30T12:56:17.868Z,3.10
2023-04-30T12:58:47.991Z,2.90
2023-04-30T13:01:18.575Z,3.22
2023-04-30T13:03:45.587Z,3.10
2023-04-30T13:06:12.638Z,3.25
2023-04-30T13:08:54.006Z,3.17
2023-04-30T13:11:26.295Z,2.72
2023-04-30T13:13:55.449Z,2.60
2023-04-30T13:16:23.052Z,2.92
2023-04-30T13:18:49.933Z,2.92
2023-04-30T13:21:16.768Z,2.67
2023-04-30T13:23:52.073Z,2.60
2023-04-30T13:26:21.867Z,3.92
2023-04-30T13:28:48.764Z,2.90
2023-04-30T13:31:15.859Z,2.72
2023-04-30T13:33:42.806Z,3.35
2023-04-30T13:36:09.720Z,2.67
2023-04-30T13:38:36.670Z,2.70
2023-04-30T13:41:03.630Z,2.75
2023-04-30T13:43:30.729Z,2.42
2023-04-30T13:45:58.952Z,3.00
2023-04-30T13:48:25.868Z,2.70
2023-04-30T13:50:53.013Z,2.92
2023-04-30T13:53:19.794Z,2.65
2023-04-30T13:55:46.652Z,3.25
2023-04-30T13:58:13.887Z,2.88
2023-04-30T14:00:40.738Z,2.63
2023-04-30T14:03:08.546Z,2.30
2023-04-30T14:05:36.523Z,2.60
2023-04-30T14:08:04.211Z,2.60
2023-04-30T14:10:31.106Z,2.20
2023-04-30T14:12:57.985Z,2.25
2023-04-30T14:15:24.962Z,2.40
2023-04-30T14:17:53.106Z,2.55
2023-04-30T14:20:20.157Z,2.60
2023-04-30T14:22:47.024Z,2.60
2023-04-30T14:25:13.822Z,2.45
2023-04-30T14:27:41.496Z,2.50
2023-04-30T14:30:09.266Z,2.78
2023-04-30T14:32:37.382Z,2.80
2023-04-30T14:35:05.306Z,2.80
2023-04-30T14:37:32.180Z,2.33
2023-04-30T14:40:00.539Z,2.50
2023-04-30T14:42:27.847Z,2.47
2023-04-30T14:44:54.815Z,2.67
2023-04-30T14:47:22.798Z,2.85
2023-04-30T14:49:52.330Z,2.70
2023-04-30T14:52:20.036Z,2.88
2023-04-30T14:54:46.951Z,2.55
2023-04-30T14:57:14.898Z,2.60
2023-04-30T14:59:42.034Z,2.60
2023-04-30T15:02:09.441Z,2.55
2023-04-30T15:04:36.598Z,2.63
2023-04-30T15:07:04.358Z,2.85
2023-04-30T15:09:31.344Z,2.85
2023-04-30T15:11:58.224Z,2.95
2023-04-30T15:14:25.051Z,3.13
2023-04-30T15:16:51.878Z,3.00
2023-04-30T15:19:18.784Z,3.00
2023-04-30T15:21:47.081Z,3.42
2023-04-30T15:24:16.243Z,3.22
2023-04-30T15:26:43.111Z,3.50
2023-04-30T15:29:10.607Z,3.17
2023-04-30T15:31:37.772Z,3.13
2023-04-30T15:34:04.665Z,3.40
2023-04-30T15:36:32.065Z,3.53
2023-04-30T15:38:59.035Z,3.60
2023-04-30T15:41:26.032Z,3.67
2023-04-30T15:43:52.821Z,3.30
2023-04-30T15:46:20.186Z,3.53
2023-04-30T15:48:47.107Z,3.33
2023-04-30T15:51:13.923Z,3.42
2023-04-30T15:53:40.833Z,3.20
2023-04-30T15:56:09.241Z,3.65
2023-04-30T15:58:36.036Z,3.13
2023-04-30T16:01:03.017Z,3.38
2023-04-30T16:03:29.928Z,3.35
2023-04-30T16:05:57.056Z,3.20
2023-04-30T16:08:24.000Z,4.18
2023-04-30T16:10:50.921Z,3.60
2023-04-30T16:13:17.746Z,4.43
2023-04-30T16:15:44.555Z,5.60
2023-04-30T16:18:11.353Z,3.40
2023-04-30T16:20:39.215Z,3.20
2023-04-30T16:23:06.118Z,3.90
2023-04-30T16:25:33.265Z,3.38
2023-04-30T16:28:00.104Z,3.88
2023-04-30T16:30:27.115Z,3.65
2023-04-30T16:32:54.007Z,3.42
2023-04-30T16:35:20.947Z,3.30
2023-04-30T16:37:47.712Z,2.85
2023-04-30T16:40:14.520Z,3.05
2023-04-30T16:42:41.400Z,3.40
2023-04-30T16:45:09.266Z,3.60
2023-04-30T16:47:36.094Z,3.67
2023-04-30T16:50:04.303Z,3.40
2023-04-30T16:52:31.831Z,3.60
2023-04-30T16:54:58.836Z,3.63
2023-04-30T16:57:25.912Z,3.40
2023-04-30T16:59:53.079Z,3.72
2023-04-30T17:02:20.387Z,3.47
2023-04-30T17:04:47.288Z,3.17
2023-04-30T17:07:14.115Z,4.15
2023-04-30T17:09:41.261Z,3.70
2023-04-30T17:12:08.128Z,3.53
2023-04-30T17:14:34.966Z,3.80
2023-04-30T17:17:01.879Z,3.58
2023-04-30T17:19:28.709Z,3.45
2023-04-30T17:21:55.933Z,3.95
2023-04-30T17:24:24.287Z,4.03
2023-04-30T17:26:51.545Z,3.80
2023-04-30T17:29:19.778Z,3.80
2023-04-30T17:31:47.225Z,3.95
2023-04-30T17:34:14.173Z,4.00
2023-04-30T17:36:41.389Z,4.93
2023-04-30T17:39:08.367Z,5.00
2023-04-30T17:41:35.349Z,3.70
2023-04-30T17:44:02.155Z,3.50
2023-04-30T17:46:29.162Z,3.90
2023-04-30T17:48:55.984Z,4.40
2023-04-30T17:51:22.877Z,4.10
2023-04-30T17:53:49.681Z,3.92
2023-04-30T17:56:16.475Z,3.70
2023-04-30T17:58:43.375Z,3.60
2023-04-30T18:01:10.139Z,4.20
2023-04-30T18:03:37.105Z,4.43
2023-04-30T18:06:04.155Z,3.80
2023-04-30T18:08:31.105Z,4.35
2023-04-30T18:10:58.226Z,4.00
2023-04-30T18:13:25.258Z,4.50
2023-04-30T18:15:52.043Z,6.90
2023-04-30T18:18:18.935Z,4.88
2023-04-30T18:20:45.989Z,4.75
2023-04-30T18:23:15.547Z,5.05
2023-04-30T18:25:45.058Z,4.60
2023-04-30T18:28:16.874Z,4.22
2023-04-30T18:33:12.682Z,4.53
2023-04-30T18:35:40.186Z,4.50
2023-04-30T18:38:14.245Z,4.38
2023-04-30T18:41:04.462Z,4.78
2023-04-30T18:43:31.397Z,4.60
2023-04-30T18:45:58.508Z,4.90
2023-04-30T18:48:25.412Z,4.45
2023-04-30T18:50:52.243Z,4.93
2023-04-30T18:53:19.048Z,4.88
2023-04-30T18:55:46.076Z,5.57
2023-04-30T18:58:12.989Z,5.53
2023-04-30T19:00:43.369Z,5.40
2023-04-30T19:03:10.511Z,5.00
2023-04-30T19:05:37.830Z,5.18
2023-04-30T19:08:04.758Z,5.60
2023-04-30T19:10:33.493Z,5.40
2023-04-30T19:13:00.549Z,5.00
2023-04-30T19:15:29.821Z,5.80
2023-04-30T19:17:57.721Z,5.25
2023-04-30T19:20:24.618Z,5.55
2023-04-30T19:22:51.424Z,5.57
2023-04-30T19:25:18.325Z,5.35
2023-04-30T19:27:45.282Z,5.18
2023-04-30T19:30:12.647Z,4.97
2023-04-30T19:32:39.611Z,5.35
2023-04-30T19:35:07.011Z,5.82
2023-04-30T19:37:33.767Z,5.80
2023-04-30T19:40:00.656Z,5.53
2023-04-30T19:42:27.413Z,5.50
2023-04-30T19:44:54.264Z,5.60
2023-04-30T19:47:22.820Z,5.05
2023-04-30T19:49:49.588Z,5.50
2023-04-30T19:52:16.542Z,5.90
2023-04-30T19:54:48.583Z,5.90
2023-04-30T19:57:15.881Z,5.68
2023-04-30T19:59:43.555Z,5.20
2023-04-30T20:02:10.403Z,5.75
2023-04-30T20:04:37.237Z,6.13
2023-04-30T20:07:04.495Z,6.00
2023-04-30T20:09:31.361Z,5.43
2023-04-30T20:11:58.115Z,6.10
2023-04-30T20:14:24.879Z,6.20
2023-04-30T20:16:54.424Z,5.78
2023-04-30T20:19:22.160Z,5.97
2023-04-30T20:21:49.625Z,6.30
2023-04-30T20:24:16.643Z,5.43
2023-04-30T20:26:43.509Z,6.50
2023-04-30T20:29:10.450Z,5.53
2023-04-30T20:31:37.774Z,6.43
2023-04-30T20:34:04.766Z,6.43
2023-04-30T20:36:31.803Z,6.38
2023-04-30T20:38:58.902Z,6.55
2023-04-30T20:41:26.640Z,6.22
2023-04-30T20:43:54.171Z,6.10
2023-04-30T20:46:24.353Z,5.43
2023-04-30T20:48:51.445Z,6.22
2023-04-30T20:51:18.473Z,6.32
2023-04-30T20:53:45.564Z,6.00
2023-04-30T20:56:12.636Z,6.95
2023-04-30T20:58:39.453Z,6.88
2023-04-30T21:01:07.356Z,6.57
2023-04-30T21:03:34.257Z,7.30
2023-04-30T21:06:01.128Z,7.55
2023-04-30T21:08:27.955Z,6.75
2023-04-30T21:10:54.713Z,6.72
2023-04-30T21:13:21.502Z,6.60
2023-04-30T21:15:48.880Z,6.88
2023-04-30T21:18:16.700Z,7.13
2023-04-30T21:20:43.502Z,7.38
2023-04-30T21:23:10.317Z,7.63
2023-04-30T21:25:40.256Z,7.70
2023-04-30T21:28:07.046Z,7.80
2023-04-30T21:30:54.928Z,8.38
2023-04-30T21:33:21.872Z,8.15
2023-04-30T21:35:48.657Z,6.75
2023-04-30T21:38:15.938Z,7.43
2023-04-30T21:40:43.261Z,6.90
2023-04-30T21:43:10.067Z,6.68
2023-04-30T21:45:36.844Z,7.55
2023-04-30T21:48:04.467Z,6.45
2023-04-30T21:50:34.264Z,6.60
2023-04-30T21:53:02.075Z,7.10
2023-04-30T21:55:29.111Z,6.75
2023-04-30T21:57:56.064Z,7.53
2023-04-30T22:00:23.374Z,6.97
2023-04-30T22:02:50.954Z,6.22
2023-04-30T22:05:19.600Z,6.88
2023-04-30T22:07:47.373Z,7.60
2023-04-30T22:10:15.174Z,7.15
2023-04-30T22:12:43.853Z,6.60
2023-04-30T22:15:12.336Z,7.18
2023-04-30T22:17:40.444Z,7.35
2023-04-30T22:20:08.602Z,7.38
2023-04-30T22:22:36.343Z,6.82
2023-04-30T22:25:03.795Z,6.53
2023-04-30T22:27:31.503Z,6.50
2023-04-30T22:29:58.666Z,6.80
2023-04-30T22:32:26.387Z,6.65
2023-04-30T22:34:53.428Z,6.88
2023-04-30T22:37:20.234Z,6.68
2023-04-30T22:39:48.435Z,6.38
2023-04-30T22:42:15.726Z,6.43
2023-04-30T22:44:42.966Z,7.45
2023-04-30T22:47:10.015Z,6.57
2023-04-30T22:49:38.872Z,7.25
2023-04-30T22:52:06.965Z,7.95
2023-04-30T22:54:35.220Z,8.05
2023-04-30T22:57:03.080Z,7.43
2023-04-30T22:59:30.048Z,7.72
2023-04-30T23:01:57.271Z,7.60
2023-04-30T23:04:24.156Z,7.00
2023-04-30T23:06:51.114Z,7.60
2023-04-30T23:09:19.185Z,7.38
2023-04-30T23:11:46.032Z,7.80
2023-04-30T23:14:12.991Z,8.25
2023-04-30T23:16:42.834Z,8.10
2023-04-30T23:19:10.380Z,8.10
2023-04-30T23:21:37.589Z,7.70
2023-04-30T23:24:04.454Z,8.18
2023-04-30T23:26:31.529Z,8.30
2023-04-30T23:28:58.413Z,8.10
2023-04-30T23:31:25.345Z,8.18
2023-04-30T23:33:52.178Z,8.23
2023-04-30T23:36:18.944Z,7.40
2023-04-30T23:38:46.655Z,7.75
2023-04-30T23:41:14.501Z,7.68
2023-04-30T23:43:41.482Z,8.13
2023-04-30T23:46:08.831Z,7.22
2023-04-30T23:48:36.010Z,7.78
2023-04-30T23:51:05.110Z,8.32
2023-04-30T23:53:32.182Z,8.15
2023-04-30T23:55:59.719Z,7.78
2023-04-30T23:58:27.430Z,8.05
